createdAt,value
2018-12-14T00:00:15.666Z,17.50
2018-12-14T00:02:43.787Z,17.23
2018-12-14T00:05:11.839Z,19.87
2018-12-14T00:07:39.927Z,17.37
2018-12-14T00:10:08.125Z,22.17
2018-12-14T00:12:36.180Z,14.00
2018-12-14T00:15:05.307Z,14.20
2018-12-14T00:17:33.391Z,16.07
2018-12-14T00:20:01.492Z,19.03
2018-12-14T00:22:29.585Z,17.73
2018-12-14T00:24:57.642Z,16.47
2018-12-14T00:27:25.911Z,16.27
2018-12-14T00:29:54.417Z,15.17
2018-12-14T00:32:22.565Z,16.03
2018-12-14T00:34:50.625Z,19.60
2018-12-14T00:37:18.715Z,21.13
2018-12-14T00:39:46.827Z,18.23
2018-12-14T00:42:14.976Z,17.07
2018-12-14T00:44:43.041Z,19.03
2018-12-14T00:47:11.109Z,18.07
2018-12-14T00:49:39.184Z,21.53
2018-12-14T00:52:07.271Z,14.73
2018-12-14T00:54:35.336Z,16.27
2018-12-14T00:57:03.513Z,13.13
2018-12-14T00:59:31.571Z,13.93
2018-12-14T01:01:59.687Z,21.30
2018-12-14T01:04:27.778Z,16.80
2018-12-14T01:06:55.845Z,13.53
2018-12-14T01:09:23.905Z,15.73
2018-12-14T01:11:58.087Z,22.13
2018-12-14T01:14:22.189Z,16.67
2018-12-14T01:16:50.297Z,15.73
2018-12-14T01:19:18.377Z,16.80
2018-12-14T01:21:46.512Z,17.50
2018-12-14T01:24:14.775Z,17.93
2018-12-14T01:26:42.883Z,17.57
2018-12-14T01:29:10.938Z,19.20
2018-12-14T01:31:39.085Z,16.30
2018-12-14T01:34:07.119Z,16.07
2018-12-14T01:36:35.186Z,16.17
2018-12-14T01:39:04.506Z,15.60
2018-12-14T01:41:32.524Z,18.70
2018-12-14T01:44:00.607Z,14.77
2018-12-14T01:46:28.665Z,11.10
2018-12-14T01:48:56.738Z,11.50
2018-12-14T01:51:25.847Z,14.50
2018-12-14T01:53:53.928Z,14.33
2018-12-14T01:56:22.886Z,13.87
2018-12-14T01:58:50.936Z,17.07
2018-12-14T02:01:19.008Z,17.47
2018-12-14T02:03:47.073Z,21.23
2018-12-14T02:06:15.186Z,18.30
2018-12-14T02:08:43.260Z,18.10
2018-12-14T02:11:11.304Z,14.53
2018-12-14T02:13:39.389Z,16.03
2018-12-14T02:16:07.448Z,16.43
2018-12-14T02:18:35.596Z,17.50
2018-12-14T02:21:03.666Z,14.77
2018-12-14T02:23:31.773Z,14.37
2018-12-14T02:25:59.842Z,17.20
2018-12-14T02:28:27.936Z,16.60
2018-12-14T02:30:55.998Z,16.87
2018-12-14T02:33:24.074Z,19.67
2018-12-14T02:35:52.176Z,16.17
2018-12-14T02:38:20.238Z,13.63
2018-12-14T02:40:48.300Z,12.93
2018-12-14T02:43:16.421Z,14.73
2018-12-14T02:45:44.442Z,18.00
2018-12-14T02:48:12.523Z,18.53
2018-12-14T02:50:40.676Z,16.27
2018-12-14T02:53:08.739Z,17.57
2018-12-14T02:55:36.794Z,17.67
2018-12-14T02:58:04.893Z,12.67
2018-12-14T03:00:32.968Z,16.20
2018-12-14T03:03:01.214Z,17.00
2018-12-14T03:05:29.277Z,18.30
2018-12-14T03:07:57.348Z,14.63
2018-12-14T03:10:25.426Z,18.83
2018-12-14T03:12:53.477Z,15.63
2018-12-14T03:15:21.560Z,14.93
2018-12-14T03:17:49.693Z,17.63
2018-12-14T03:20:17.736Z,15.70
2018-12-14T03:22:45.833Z,15.83
2018-12-14T03:25:13.867Z,18.80
2018-12-14T03:27:41.928Z,15.37
2018-12-14T03:30:10.346Z,16.33
2018-12-14T03:32:38.429Z,18.00
2018-12-14T03:35:06.618Z,14.97
2018-12-14T03:37:34.693Z,15.90
2018-12-14T03:40:02.832Z,13.00
2018-12-14T03:42:34.391Z,17.70
2018-12-14T03:45:01.004Z,15.90
2018-12-14T03:47:29.084Z,15.60
2018-12-14T03:49:57.221Z,15.07
2018-12-14T03:52:25.287Z,15.83
2018-12-14T03:54:53.360Z,19.50
2018-12-14T03:57:21.479Z,16.83
2018-12-14T03:59:49.708Z,14.63
2018-12-14T04:02:18.765Z,16.03
2018-12-14T04:04:46.865Z,16.20
2018-12-14T04:07:14.921Z,17.20
2018-12-14T04:09:42.975Z,15.03
2018-12-14T04:12:11.051Z,19.67
2018-12-14T04:14:39.160Z,20.40
2018-12-14T04:17:07.259Z,18.80
2018-12-14T04:19:35.353Z,18.30
2018-12-14T04:22:03.442Z,18.07
2018-12-14T04:24:31.520Z,17.60
2018-12-14T04:26:59.606Z,17.60
2018-12-14T04:29:27.703Z,15.43
2018-12-14T04:31:55.772Z,13.70
2018-12-14T04:34:23.850Z,17.37
2018-12-14T04:36:52.100Z,17.80
2018-12-14T04:39:20.217Z,17.80
2018-12-14T04:41:48.250Z,15.47
2018-12-14T04:44:16.420Z,16.17
2018-12-14T04:46:44.500Z,14.83
2018-12-14T04:49:12.669Z,15.40
2018-12-14T04:51:40.702Z,15.90
2018-12-14T04:54:08.785Z,11.90
2018-12-14T04:56:36.892Z,14.00
2018-12-14T04:59:04.967Z,18.20
2018-12-14T05:01:33.032Z,16.67
2018-12-14T05:04:01.132Z,16.93
2018-12-14T05:06:29.357Z,15.30
2018-12-14T05:08:57.431Z,17.03
2018-12-14T05:11:25.515Z,15.43
2018-12-14T05:13:53.588Z,17.80
2018-12-14T05:16:21.642Z,17.27
2018-12-14T05:18:49.696Z,16.13
2018-12-14T05:21:17.763Z,16.63
2018-12-14T05:23:45.828Z,15.57
2018-12-14T05:26:13.910Z,17.10
2018-12-14T05:28:42.042Z,18.83
2018-12-14T05:31:10.098Z,18.33
2018-12-14T05:33:38.254Z,15.43
2018-12-14T05:36:06.312Z,17.63
2018-12-14T05:38:34.424Z,19.73
2018-12-14T05:41:02.543Z,16.50
2018-12-14T05:43:30.609Z,15.90
2018-12-14T05:45:58.697Z,14.23
2018-12-14T05:48:26.768Z,17.37
2018-12-14T05:50:54.830Z,15.23
2018-12-14T05:53:22.907Z,18.90
2018-12-14T05:55:51.015Z,15.20
2018-12-14T05:58:19.082Z,15.80
2018-12-14T06:00:47.215Z,15.97
2018-12-14T06:03:15.298Z,17.87
2018-12-14T06:05:43.382Z,19.83
2018-12-14T06:08:11.532Z,15.13
2018-12-14T06:10:39.620Z,18.73
2018-12-14T06:13:09.171Z,18.77
2018-12-14T06:15:37.683Z,17.90
2018-12-14T06:18:05.853Z,14.00
2018-12-14T06:20:33.920Z,18.57
2018-12-14T06:23:01.983Z,14.40
2018-12-14T06:25:30.222Z,15.33
2018-12-14T06:27:58.310Z,18.07
2018-12-14T06:30:26.407Z,16.10
2018-12-14T06:32:54.541Z,15.07
2018-12-14T06:35:22.626Z,20.77
2018-12-14T06:37:50.725Z,16.00
2018-12-14T06:40:18.814Z,17.57
2018-12-14T06:42:46.941Z,17.57
2018-12-14T06:45:15.086Z,14.77
2018-12-14T06:47:43.183Z,15.97
2018-12-14T06:50:11.585Z,15.13
2018-12-14T06:52:39.647Z,17.47
2018-12-14T06:55:07.735Z,18.47
2018-12-14T06:57:35.820Z,16.50
2018-12-14T07:00:05.215Z,18.10
2018-12-14T07:02:33.336Z,15.37
2018-12-14T07:05:01.427Z,15.73
2018-12-14T07:07:29.636Z,17.03
2018-12-14T07:09:57.666Z,18.20
2018-12-14T07:12:25.766Z,19.23
2018-12-14T07:14:53.898Z,16.23
2018-12-14T07:17:21.981Z,18.93
2018-12-14T07:19:50.062Z,16.23
2018-12-14T07:22:18.146Z,16.50
2018-12-14T07:24:46.299Z,20.10
2018-12-14T07:27:14.367Z,18.30
2018-12-14T07:29:42.426Z,18.67
2018-12-14T07:32:11.010Z,16.50
2018-12-14T07:34:40.134Z,16.10
2018-12-14T07:37:08.300Z,21.00
2018-12-14T07:39:36.382Z,17.00
2018-12-14T07:42:04.505Z,14.30
2018-12-14T07:44:32.735Z,17.97
2018-12-14T07:47:00.984Z,19.37
2018-12-14T07:49:29.068Z,14.63
2018-12-14T07:51:57.862Z,22.03
2018-12-14T07:54:25.947Z,19.70
2018-12-14T07:56:54.036Z,18.37
2018-12-14T07:59:22.130Z,18.90
2018-12-14T08:01:50.208Z,18.03
2018-12-14T08:04:18.362Z,15.53
2018-12-14T08:06:46.431Z,19.60
2018-12-14T08:09:14.658Z,17.57
2018-12-14T08:11:42.720Z,18.97
2018-12-14T08:14:10.777Z,20.47
2018-12-14T08:16:38.922Z,25.50
2018-12-14T08:19:06.956Z,19.10
2018-12-14T08:21:35.071Z,15.03
2018-12-14T08:24:03.156Z,17.00
2018-12-14T08:26:31.335Z,16.17
2018-12-14T08:28:59.386Z,22.93
2018-12-14T08:31:27.479Z,16.43
2018-12-14T08:33:55.551Z,20.83
2018-12-14T08:36:23.639Z,20.03
2018-12-14T08:38:51.727Z,17.70
2018-12-14T08:41:19.964Z,18.60
2018-12-14T08:43:48.030Z,18.47
2018-12-14T08:46:16.102Z,20.60
2018-12-14T08:48:44.200Z,14.93
2018-12-14T08:51:12.284Z,18.03
2018-12-14T08:53:40.527Z,16.93
2018-12-14T08:56:08.562Z,18.37
2018-12-14T08:58:36.717Z,20.00
2018-12-14T09:01:04.803Z,19.07
2018-12-14T09:03:32.918Z,19.20
2018-12-14T09:06:00.982Z,13.70
2018-12-14T09:08:29.074Z,17.03
2018-12-14T09:10:57.169Z,21.93
2018-12-14T09:13:25.203Z,15.67
2018-12-14T09:15:53.312Z,19.20
2018-12-14T09:18:21.409Z,17.77
2018-12-14T09:20:49.483Z,17.83
2018-12-14T09:23:17.639Z,19.80
2018-12-14T09:25:45.791Z,23.97
2018-12-14T09:28:13.871Z,17.77
2018-12-14T09:30:42.893Z,17.03
2018-12-14T09:33:11.128Z,17.93
2018-12-14T09:35:39.285Z,14.90
2018-12-14T09:38:07.359Z,15.53
2018-12-14T09:40:35.504Z,25.10
2018-12-14T09:43:03.605Z,18.23
2018-12-14T09:45:31.731Z,18.87
2018-12-14T09:47:59.787Z,13.33
2018-12-14T09:50:29.075Z,14.20
2018-12-14T09:52:57.255Z,15.57
2018-12-14T09:55:25.352Z,12.97
2018-12-14T09:57:53.428Z,16.80
2018-12-14T10:00:21.496Z,15.60
2018-12-14T10:02:49.588Z,17.87
2018-12-14T10:05:17.705Z,15.10
2018-12-14T10:07:46.946Z,14.83
2018-12-14T10:10:15.296Z,16.67
2018-12-14T10:12:43.364Z,13.10
2018-12-14T10:15:11.448Z,14.50
2018-12-14T10:17:39.562Z,13.50
2018-12-14T10:20:09.962Z,14.37
2018-12-14T10:22:41.478Z,14.07
2018-12-14T10:25:08.223Z,19.23
2018-12-14T10:27:36.378Z,17.13
2018-12-14T10:30:07.058Z,20.37
2018-12-14T10:32:35.276Z,14.70
2018-12-14T10:35:04.372Z,18.13
2018-12-14T10:37:32.484Z,15.13
2018-12-14T10:40:00.537Z,17.67
2018-12-14T10:42:28.627Z,16.00
2018-12-14T10:44:56.713Z,17.77
2018-12-14T10:47:24.803Z,16.87
2018-12-14T10:49:52.890Z,20.07
2018-12-14T10:52:21.003Z,20.73
2018-12-14T10:54:49.253Z,21.87
2018-12-14T10:57:17.353Z,19.43
2018-12-14T10:59:45.457Z,20.43
2018-12-14T11:02:13.688Z,18.00
2018-12-14T11:04:41.789Z,19.17
2018-12-14T11:07:09.940Z,23.60
2018-12-14T11:09:38.013Z,16.13
2018-12-14T11:12:06.051Z,17.40
2018-12-14T11:14:34.134Z,17.57
2018-12-14T11:17:02.194Z,16.87
2018-12-14T11:19:30.274Z,23.43
2018-12-14T11:21:58.343Z,21.07
2018-12-14T11:24:26.410Z,17.73
2018-12-14T11:26:54.473Z,15.60
2018-12-14T11:29:22.539Z,13.87
2018-12-14T11:31:51.641Z,14.77
2018-12-14T11:34:19.698Z,16.73
2018-12-14T11:36:47.777Z,11.53
2018-12-14T11:39:15.827Z,13.33
2018-12-14T11:41:44.179Z,16.53
2018-12-14T11:44:12.249Z,15.20
2018-12-14T11:46:40.337Z,15.20
2018-12-14T11:49:08.390Z,13.83
2018-12-14T11:51:36.515Z,11.27
2018-12-14T11:54:04.591Z,13.90
2018-12-14T11:56:32.660Z,14.27
2018-12-14T11:59:00.736Z,13.37
2018-12-14T12:01:28.836Z,12.03
2018-12-14T12:03:56.995Z,15.67
2018-12-14T12:06:25.066Z,12.43
2018-12-14T12:08:53.122Z,17.33
2018-12-14T12:11:21.904Z,16.60
2018-12-14T12:13:49.988Z,19.20
2018-12-14T12:16:18.157Z,12.50
2018-12-14T12:18:46.378Z,13.83
2018-12-14T12:21:14.504Z,20.00
2018-12-14T12:23:42.657Z,15.83
2018-12-14T12:26:10.718Z,14.13
2018-12-14T12:28:38.783Z,13.83
2018-12-14T12:31:06.851Z,12.63
2018-12-14T12:33:34.942Z,12.23
2018-12-14T12:36:02.996Z,12.63
2018-12-14T12:38:31.098Z,12.17
2018-12-14T12:40:59.696Z,13.33
2018-12-14T12:43:27.763Z,12.70
2018-12-14T12:45:55.848Z,12.97
2018-12-14T12:48:23.895Z,10.63
2018-12-14T12:50:51.969Z,15.43
2018-12-14T12:53:20.044Z,13.83
2018-12-14T12:55:48.148Z,11.80
2018-12-14T12:58:16.201Z,14.10
2018-12-14T13:00:44.263Z,11.37
2018-12-14T13:03:12.394Z,13.40
2018-12-14T13:05:40.467Z,10.27
2018-12-14T13:08:08.539Z,12.27
2018-12-14T13:10:36.569Z,12.90
2018-12-14T13:13:04.666Z,12.60
2018-12-14T13:15:32.822Z,13.27
2018-12-14T13:18:00.876Z,9.90
2018-12-14T13:20:28.951Z,16.17
2018-12-14T13:22:57.019Z,17.43
2018-12-14T13:25:25.102Z,16.57
2018-12-14T13:27:53.180Z,14.47
2018-12-14T13:30:21.332Z,13.77
2018-12-14T13:32:49.396Z,13.37
2018-12-14T13:35:17.457Z,17.27
2018-12-14T13:37:45.584Z,13.43
2018-12-14T13:40:13.666Z,17.97
2018-12-14T13:42:41.791Z,12.20
2018-12-14T13:45:09.966Z,14.57
2018-12-14T13:47:38.138Z,13.67
2018-12-14T13:50:06.602Z,13.47
2018-12-14T13:52:34.811Z,10.00
2018-12-14T13:55:03.093Z,11.80
2018-12-14T13:57:31.271Z,10.17
2018-12-14T13:59:59.340Z,12.40
2018-12-14T14:02:27.422Z,12.07
2018-12-14T14:04:55.557Z,11.30
2018-12-14T14:07:23.623Z,14.43
2018-12-14T14:09:51.705Z,15.10
2018-12-14T14:12:19.776Z,12.87
2018-12-14T14:14:52.971Z,11.33
2018-12-14T14:17:18.053Z,11.70
2018-12-14T14:19:46.379Z,10.63
2018-12-14T14:22:14.551Z,9.80
2018-12-14T14:24:42.616Z,12.20
2018-12-14T14:27:10.680Z,9.00
2018-12-14T14:29:38.796Z,10.83
2018-12-14T14:32:06.858Z,10.67
2018-12-14T14:34:35.071Z,7.47
2018-12-14T14:37:03.233Z,8.73
2018-12-14T14:39:31.274Z,9.40
2018-12-14T14:41:59.459Z,9.53
2018-12-14T14:44:27.563Z,10.03
2018-12-14T14:46:56.435Z,10.67
2018-12-14T14:49:24.526Z,9.27
2018-12-14T14:51:52.839Z,12.63
2018-12-14T14:54:20.903Z,10.00
2018-12-14T14:56:48.986Z,8.57
2018-12-14T14:59:17.059Z,10.87
2018-12-14T15:01:45.161Z,11.33
2018-12-14T15:04:13.279Z,12.77
2018-12-14T15:06:41.447Z,14.07
2018-12-14T15:09:09.771Z,11.37
2018-12-14T15:11:37.901Z,13.07
2018-12-14T15:14:06.036Z,11.87
2018-12-14T15:16:34.201Z,9.53
2018-12-14T15:19:02.284Z,13.63
2018-12-14T15:21:30.366Z,13.93
2018-12-14T15:23:58.446Z,14.63
2018-12-14T15:26:26.597Z,15.23
2018-12-14T15:28:54.661Z,14.20
2018-12-14T15:31:22.734Z,16.93
2018-12-14T15:33:50.786Z,12.67
2018-12-14T15:36:18.931Z,12.53
2018-12-14T15:38:46.973Z,14.33
2018-12-14T15:41:15.028Z,12.70
2018-12-14T15:43:43.097Z,14.83
2018-12-14T15:46:11.186Z,10.87
2018-12-14T15:48:39.259Z,10.97
2018-12-14T15:51:07.504Z,10.03
2018-12-14T15:53:35.549Z,12.33
2018-12-14T15:56:03.670Z,14.63
2018-12-14T15:58:31.762Z,12.63
2018-12-14T16:00:59.876Z,10.87
2018-12-14T16:03:28.070Z,13.17
2018-12-14T16:05:56.139Z,11.03
2018-12-14T16:08:24.219Z,11.17
2018-12-14T16:10:52.299Z,15.30
2018-12-14T16:13:20.382Z,10.53
2018-12-14T16:15:48.454Z,12.90
2018-12-14T16:18:16.609Z,12.83
2018-12-14T16:20:44.699Z,14.20
2018-12-14T16:23:12.766Z,9.87
2018-12-14T16:25:40.835Z,10.40
2018-12-14T16:28:09.681Z,10.63
2018-12-14T16:30:37.759Z,10.67
2018-12-14T16:33:06.101Z,9.00
2018-12-14T16:35:34.170Z,10.40
2018-12-14T16:38:02.262Z,11.10
2018-12-14T16:40:30.356Z,10.77
2018-12-14T16:42:58.490Z,11.53
2018-12-14T16:45:26.710Z,8.27
2018-12-14T16:47:54.983Z,10.40
2018-12-14T16:50:23.055Z,9.27
2018-12-14T16:52:51.163Z,11.90
2018-12-14T16:55:19.326Z,8.30
2018-12-14T16:57:47.603Z,8.33
2018-12-14T17:00:15.672Z,9.00
2018-12-14T17:02:43.824Z,9.23
2018-12-14T17:05:11.907Z,11.00
2018-12-14T17:07:40.040Z,8.20
2018-12-14T17:10:08.185Z,9.20
2018-12-14T17:12:36.239Z,8.67
2018-12-14T17:15:05.440Z,10.03
2018-12-14T17:17:33.591Z,9.43
2018-12-14T17:20:01.799Z,7.27
2018-12-14T17:22:29.872Z,9.77
2018-12-14T17:24:57.920Z,8.97
2018-12-14T17:27:26.012Z,9.23
2018-12-14T17:29:54.059Z,8.10
2018-12-14T17:32:22.934Z,10.50
2018-12-14T17:34:50.997Z,5.63
2018-12-14T17:37:19.103Z,6.83
2018-12-14T17:39:47.191Z,10.40
2018-12-14T17:42:15.279Z,5.37
2018-12-14T17:44:43.439Z,8.50
2018-12-14T17:47:11.662Z,7.07
2018-12-14T17:49:39.893Z,7.17
2018-12-14T17:52:07.939Z,8.53
2018-12-14T17:54:35.991Z,8.43
2018-12-14T17:57:04.059Z,7.10
2018-12-14T17:59:32.155Z,7.43
2018-12-14T18:02:00.257Z,7.30
2018-12-14T18:04:28.329Z,5.87
2018-12-14T18:06:56.437Z,9.50
2018-12-14T18:09:24.507Z,6.53
2018-12-14T18:11:52.604Z,8.27
2018-12-14T18:14:20.668Z,6.73
2018-12-14T18:16:48.731Z,9.63
2018-12-14T18:19:17.043Z,7.13
2018-12-14T18:21:45.117Z,8.47
2018-12-14T18:24:13.323Z,10.93
2018-12-14T18:26:41.537Z,8.10
2018-12-14T18:29:09.641Z,7.90
2018-12-14T18:31:37.716Z,8.33
2018-12-14T18:34:05.841Z,6.47
2018-12-14T18:36:33.881Z,8.57
2018-12-14T18:39:01.993Z,6.50
2018-12-14T18:41:30.071Z,6.13
2018-12-14T18:43:58.164Z,8.83
2018-12-14T18:46:26.260Z,7.60
2018-12-14T18:48:54.326Z,9.40
2018-12-14T18:51:22.384Z,8.80
2018-12-14T18:53:52.418Z,9.07
2018-12-14T18:56:20.494Z,10.53
2018-12-14T18:58:49.133Z,8.40
2018-12-14T19:01:17.762Z,9.43
2018-12-14T19:03:46.021Z,7.50
2018-12-14T19:06:14.195Z,8.10
2018-12-14T19:08:42.247Z,7.43
2018-12-14T19:11:10.393Z,7.47
2018-12-14T19:13:38.492Z,7.03
2018-12-14T19:16:06.553Z,7.23
2018-12-14T19:18:35.219Z,6.97
2018-12-14T19:21:03.317Z,7.60
2018-12-14T19:23:31.408Z,9.47
2018-12-14T19:25:59.535Z,9.30
2018-12-14T19:28:28.444Z,7.73
2018-12-14T19:30:56.493Z,10.30
2018-12-14T19:33:24.597Z,10.30
2018-12-14T19:35:52.662Z,7.83
2018-12-14T19:38:20.768Z,10.03
2018-12-14T19:40:49.080Z,7.80
2018-12-14T19:43:17.224Z,8.13
2018-12-14T19:45:45.348Z,8.17
2018-12-14T19:48:13.451Z,8.73
2018-12-14T19:50:41.528Z,8.13
2018-12-14T19:53:09.608Z,10.27
2018-12-14T19:55:37.685Z,10.90
2018-12-14T19:58:05.768Z,11.47
2018-12-14T20:00:33.902Z,9.37
2018-12-14T20:03:02.004Z,9.60
2018-12-14T20:05:30.054Z,9.60
2018-12-14T20:07:58.150Z,8.43
2018-12-14T20:10:26.221Z,11.70
2018-12-14T20:12:54.302Z,9.70
2018-12-14T20:15:22.425Z,10.07
2018-12-14T20:17:50.486Z,9.63
2018-12-14T20:20:18.647Z,9.37
2018-12-14T20:22:46.728Z,9.53
2018-12-14T20:25:14.813Z,12.60
2018-12-14T20:27:43.008Z,10.80
2018-12-14T20:30:11.269Z,9.03
2018-12-14T20:32:39.340Z,11.83
2018-12-14T20:35:07.661Z,14.50
2018-12-14T20:37:35.741Z,11.83
2018-12-14T20:40:05.068Z,10.07
2018-12-14T20:42:33.195Z,10.87
2018-12-14T20:45:01.297Z,11.90
2018-12-14T20:47:29.448Z,11.63
2018-12-14T20:49:57.591Z,10.80
2018-12-14T20:52:25.661Z,11.43
2018-12-14T20:54:53.746Z,10.97
2018-12-14T20:57:21.843Z,12.40
2018-12-14T20:59:49.935Z,9.63
2018-12-14T21:02:25.237Z,10.57
2018-12-14T21:04:53.292Z,8.70
2018-12-14T21:07:21.375Z,10.00
2018-12-14T21:09:49.463Z,13.23
2018-12-14T21:12:18.276Z,8.57
2018-12-14T21:14:50.834Z,7.70
2018-12-14T21:17:16.431Z,8.93
2018-12-14T21:19:44.497Z,7.27
2018-12-14T21:22:12.893Z,11.53
2018-12-14T21:24:41.060Z,10.00
2018-12-14T21:27:09.147Z,9.03
2018-12-14T21:29:37.241Z,9.93
2018-12-14T21:32:05.321Z,8.20
2018-12-14T21:34:33.407Z,9.07
2018-12-14T21:37:01.495Z,8.77
2018-12-14T21:39:29.566Z,6.70
2018-12-14T21:41:57.714Z,8.30
2018-12-14T21:44:25.790Z,8.70
2018-12-14T21:46:53.845Z,9.13
2018-12-14T21:49:21.932Z,10.07
2018-12-14T21:51:50.035Z,11.43
2018-12-14T21:54:18.091Z,11.00
2018-12-14T21:56:46.190Z,10.93
2018-12-14T21:59:14.261Z,7.80
2018-12-14T22:01:42.315Z,10.40
2018-12-14T22:04:10.394Z,11.70
2018-12-14T22:06:38.533Z,11.50
2018-12-14T22:09:07.605Z,10.47
2018-12-14T22:11:35.758Z,9.43
2018-12-14T22:14:03.964Z,10.90
2018-12-14T22:16:32.035Z,7.13
2018-12-14T22:19:00.096Z,11.50
2018-12-14T22:21:28.158Z,11.00
2018-12-14T22:23:56.255Z,9.40
2018-12-14T22:26:24.340Z,8.80
2018-12-14T22:28:52.382Z,8.87
2018-12-14T22:31:20.517Z,8.83
2018-12-14T22:33:48.590Z,9.80
2018-12-14T22:36:16.666Z,9.90
2018-12-14T22:38:44.742Z,8.70
2018-12-14T22:41:12.882Z,9.30
2018-12-14T22:43:40.962Z,8.53
2018-12-14T22:46:09.048Z,10.00
2018-12-14T22:48:37.150Z,12.00
2018-12-14T22:51:05.334Z,10.40
2018-12-14T22:53:33.468Z,10.90
2018-12-14T22:56:01.640Z,11.67
2018-12-14T22:58:29.712Z,13.10
2018-12-14T23:00:57.842Z,8.43
2018-12-14T23:03:25.940Z,14.10
2018-12-14T23:05:54.054Z,12.50
2018-12-14T23:08:22.108Z,15.00
2018-12-14T23:10:50.207Z,12.13
2018-12-14T23:13:18.261Z,14.63
2018-12-14T23:15:46.324Z,11.30
2018-12-14T23:18:14.462Z,12.77
2018-12-14T23:20:42.509Z,12.00
2018-12-14T23:23:10.758Z,11.80
2018-12-14T23:25:38.850Z,12.30
2018-12-14T23:28:06.920Z,11.60
2018-12-14T23:30:35.013Z,12.37
2018-12-14T23:33:03.227Z,15.50
2018-12-14T23:35:31.296Z,13.07
2018-12-14T23:37:59.365Z,15.67
2018-12-14T23:40:27.449Z,14.60
2018-12-14T23:42:56.521Z,14.90
2018-12-14T23:45:24.592Z,15.17
2018-12-14T23:47:52.656Z,14.83
2018-12-14T23:50:20.832Z,12.37
2018-12-14T23:52:48.953Z,13.60
2018-12-14T23:55:17.021Z,13.57
2018-12-14T23:57:45.307Z,11.77
